This is the latest recevied weather packets stored in our database for station/object K0QED. If no packets are shown the sender has not sent any weather packets the latest 10 day(s).
| Time | Temp. | Humidity | Pressure | Rain* | Wind** | Luminosity | Snow |
|---|---|---|---|---|---|---|---|
| 1777421385 | 7.78° C | 59% | 1019.6 hPa | 0 mm | - | 70 W/m² | - |
| 1777421082 | 7.78° C | 59% | 1019.9 hPa | 0 mm | - | 94 W/m² | - |
| 1777420778 | 7.78° C | 60% | 1019.7 hPa | 0 mm | - | 73 W/m² | - |
| 1777420474 | 7.78° C | 60% | 1019.7 hPa | 0 mm | - | 84 W/m² | - |
| 1777420171 | 8.33° C | 60% | 1019.6 hPa | 0 mm | - | 81 W/m² | - |
| 1777419867 | 8.33° C | 59% | 1019.4 hPa | 0 mm | - | 85 W/m² | - |
| 1777419564 | 8.89° C | 58% | 1019.4 hPa | 0 mm | - | 107 W/m² | - |
| 1777419263 | 8.33° C | 58% | 1019.1 hPa | 0 mm | - | 247 W/m² | - |
| 1777418961 | 8.33° C | 59% | 1019.2 hPa | 0 mm | - | 132 W/m² | - |
| 1777418655 | 8.33° C | 62% | 1019.2 hPa | 0 mm | - | 109 W/m² | - |
| 1777418352 | 8.33° C | 62% | 1018.9 hPa | 0 mm | - | 116 W/m² | - |
| 1777418048 | 8.33° C | 64% | 1019 hPa | 0 mm | - | 121 W/m² | - |
| 1777417744 | 8.33° C | 64% | 1018.7 hPa | 0 mm | - | 136 W/m² | - |
| 1777417439 | 8.33° C | 64% | 1018.5 hPa | 0 mm | - | 113 W/m² | - |
| 1777417136 | 8.89° C | 64% | 1018.6 hPa | 0 mm | - | 200 W/m² | - |
| 1777416832 | 9.44° C | 63% | 1018.7 hPa | 0 mm | - | 294 W/m² | - |
| 1777416528 | 8.89° C | 64% | 1018.7 hPa | 0 mm | - | 431 W/m² | - |
| 1777416224 | 9.44° C | 65% | 1018.7 hPa | 0 mm | - | 314 W/m² | - |
| 1777415923 | 9.44° C | 64% | 1018.6 hPa | 0 mm | - | 347 W/m² | - |
| 1777415619 | 9.44° C | 63% | 1018.4 hPa | 0 mm | - | 244 W/m² | - |
| 1777415315 | 9.44° C | 63% | 1018.6 hPa | 0 mm | - | 472 W/m² | - |
| 1777415010 | 9.44° C | 63% | 1018.6 hPa | 0 mm | - | 429 W/m² | - |
| 1777414709 | 10° C | 61% | 1018.6 hPa | 0 mm | - | 408 W/m² | - |
| 1777414406 | 9.44° C | 66% | 1018.6 hPa | 0 mm | - | 530 W/m² | - |
| 1777414105 | 8.33° C | 68% | 1018.5 hPa | 0 mm | - | 465 W/m² | - |
* Rain latest hour (hover to see other rain measurements)
** Current wind speed in m/s (hover to see current wind gust speed)